createdAt,value
2022-08-18T16:10:05.191Z,100797.69
2022-08-18T16:12:31.887Z,100799.09
2022-08-18T16:14:59.656Z,100794.81
2022-08-18T16:17:31.708Z,100786.94
2022-08-18T16:19:58.661Z,100789.84
2022-08-18T16:22:25.448Z,100791.75
2022-08-18T16:24:55.088Z,100783.53
2022-08-18T16:27:22.220Z,100794.59
2022-08-18T16:30:02.567Z,100784.38
2022-08-18T16:32:32.264Z,100787.34
2022-08-18T16:35:01.698Z,100786.69
2022-08-18T16:37:28.469Z,100782.78
2022-08-18T16:39:55.326Z,100777.34
2022-08-18T16:42:24.851Z,100777.13
2022-08-18T16:44:51.633Z,100770.75
2022-08-18T16:47:18.454Z,100768.19
2022-08-18T16:49:51.266Z,100761.16
2022-08-18T16:52:19.715Z,100767.94
2022-08-18T16:54:47.854Z,100763.16
2022-08-18T16:57:53.765Z,100757.06
2022-08-18T17:00:42.503Z,100754.53
2022-08-18T17:03:28.946Z,100748.91
2022-08-18T17:06:04.554Z,100755.91
2022-08-18T17:08:34.218Z,100749.16
2022-08-18T17:11:06.360Z,100745.25
2022-08-18T17:13:35.863Z,100736.66
2022-08-18T17:16:05.431Z,100736.34
2022-08-18T17:18:36.595Z,100735.75
2022-08-18T17:21:06.424Z,100745.16
2022-08-18T17:23:34.525Z,100741.50
2022-08-18T17:26:10.172Z,100744.06
2022-08-18T17:28:50.548Z,100745.84
2022-08-18T17:31:24.738Z,100750.69
2022-08-18T17:33:54.075Z,100747.38
2022-08-18T17:36:34.640Z,100747.59
2022-08-18T17:39:03.970Z,100747.50
2022-08-18T17:41:30.825Z,100750.25
2022-08-18T17:44:00.897Z,100747.88
2022-08-18T17:46:32.617Z,100746.19
2022-08-18T17:49:11.495Z,100743.88
2022-08-18T17:51:44.490Z,100744.50
2022-08-18T17:54:29.866Z,100741.97
2022-08-18T17:57:01.964Z,100736.22
2022-08-18T17:59:58.639Z,100744.22
2022-08-18T18:02:29.920Z,100746.81
2022-08-18T18:04:58.476Z,100748.13
2022-08-18T18:07:31.418Z,100749.81
2022-08-18T18:10:01.955Z,100748.88
2022-08-18T18:12:29.988Z,100747.06
2022-08-18T18:14:59.039Z,100765.22
2022-08-18T18:17:30.471Z,100759.16
2022-08-18T18:20:15.999Z,100760.34
2022-08-18T18:22:44.342Z,100753.94
2022-08-18T18:25:12.617Z,100754.31
2022-08-18T18:27:43.105Z,100751.78
2022-08-18T18:30:27.396Z,100753.34
2022-08-18T18:33:03.972Z,100750.34
2022-08-18T18:35:54.649Z,100749.28
2022-08-18T18:38:29.110Z,100748.97
2022-08-18T18:41:06.873Z,100747.63
2022-08-18T18:43:47.491Z,100748.56
2022-08-18T18:46:19.485Z,100756.56
2022-08-18T18:49:05.085Z,100750.84
2022-08-18T18:51:56.004Z,100754.56
2022-08-18T18:54:41.608Z,100754.88
2022-08-18T18:57:14.667Z,100759.31
2022-08-18T18:59:59.198Z,100769.50
2022-08-18T19:02:35.185Z,100762.56
2022-08-18T19:05:20.605Z,100764.06
2022-08-18T19:07:53.849Z,100766.13
2022-08-18T19:10:31.799Z,100779.34
2022-08-18T19:13:03.030Z,100774.25
2022-08-18T19:15:30.250Z,100772.41
2022-08-18T19:18:02.225Z,100770.91
2022-08-18T19:20:37.427Z,100773.97
2022-08-18T19:23:15.295Z,100772.53
2022-08-18T19:26:00.096Z,100770.31
2022-08-18T19:29:12.232Z,100776.09
2022-08-18T19:31:42.257Z,100780.16
2022-08-18T19:34:26.188Z,100777.97
2022-08-18T19:37:02.356Z,100776.66
2022-08-18T19:39:43.536Z,100783.78
2022-08-18T19:42:35.234Z,100779.56
2022-08-18T19:45:17.233Z,100791.91
2022-08-18T19:47:51.702Z,100789.03
2022-08-18T19:50:21.607Z,100777.84
2022-08-18T19:53:06.613Z,100778.53
2022-08-18T19:55:55.334Z,100788.53
2022-08-18T19:58:25.145Z,100784.31
2022-08-18T20:01:21.086Z,100781.63
2022-08-18T20:04:15.830Z,100778.38
2022-08-18T20:07:10.504Z,100781.72
2022-08-18T20:09:46.263Z,100782.78
2022-08-18T20:12:28.194Z,100783.66
2022-08-18T20:15:12.906Z,100782.31
2022-08-18T20:18:07.226Z,100780.63
2022-08-18T20:20:38.413Z,100781.63
2022-08-18T20:23:32.548Z,100783.66
2022-08-18T20:25:59.294Z,100774.53
2022-08-18T20:28:39.099Z,100780.81
2022-08-18T20:31:16.443Z,100781.47
2022-08-18T20:34:04.215Z,100779.97
2022-08-18T20:36:36.731Z,100781.31
2022-08-18T20:39:41.275Z,100778.09
2022-08-18T20:42:24.580Z,100778.09
2022-08-18T20:44:52.613Z,100786.03
2022-08-18T20:47:31.496Z,100794.53
2022-08-18T20:50:22.775Z,100792.84
2022-08-18T20:53:16.714Z,100790.81
2022-08-18T20:56:31.284Z,100792.19
2022-08-18T20:59:04.117Z,100796.41
2022-08-18T21:01:35.936Z,100789.13
2022-08-18T21:04:03.223Z,100800.97
2022-08-18T21:06:37.591Z,100796.41
2022-08-18T21:09:04.614Z,100798.78
2022-08-18T21:11:40.696Z,100802.88
2022-08-18T21:14:07.900Z,100807.13
2022-08-18T21:16:39.242Z,100806.25
2022-08-18T21:19:08.716Z,100813.19
2022-08-18T21:21:49.835Z,100812.16
2022-08-18T21:24:31.814Z,100815.91
2022-08-18T21:27:05.455Z,100819.47
2022-08-18T21:29:46.885Z,100817.63
2022-08-18T21:32:36.983Z,100824.03
2022-08-18T21:35:22.826Z,100813.91
2022-08-18T21:37:57.836Z,100814.75
2022-08-18T21:40:49.403Z,100804.75
2022-08-18T21:43:36.057Z,100801.41
2022-08-18T21:46:03.312Z,100806.81
2022-08-18T21:48:31.640Z,100805.28
2022-08-18T21:51:01.330Z,100806.81
2022-08-18T21:53:33.230Z,100803.56
2022-08-18T21:56:01.584Z,100801.00
2022-08-18T21:58:38.726Z,100802.19
2022-08-18T22:01:13.979Z,100805.91
2022-08-18T22:04:24.208Z,100808.59
2022-08-18T22:06:54.951Z,100806.94
2022-08-18T22:09:49.375Z,100807.94
2022-08-18T22:12:54.372Z,100805.75
2022-08-18T22:15:27.224Z,100809.28
2022-08-18T22:18:02.600Z,100808.13
2022-08-18T22:20:35.224Z,100799.81
2022-08-18T22:23:32.919Z,100805.91
2022-08-18T22:26:23.117Z,100816.06
2022-08-18T22:29:01.497Z,100816.03
2022-08-18T22:31:32.952Z,100813.50
2022-08-18T22:34:09.281Z,100815.53
2022-08-18T22:36:42.210Z,100814.69
2022-08-18T22:39:11.773Z,100814.34
2022-08-18T22:41:39.435Z,100816.03
2022-08-18T22:44:07.948Z,100821.09
2022-08-18T22:46:35.220Z,100823.97
2022-08-18T22:49:03.597Z,100826.34
2022-08-18T22:51:32.977Z,100826.50
2022-08-18T22:53:59.906Z,100830.75
2022-08-18T22:56:34.894Z,100836.84
2022-08-18T22:59:14.070Z,100828.19
2022-08-18T23:01:45.612Z,100838.00
2022-08-18T23:04:12.884Z,100823.81
2022-08-18T23:06:39.648Z,100833.78
2022-08-18T23:09:06.597Z,100827.88
2022-08-18T23:11:33.307Z,100823.44
2022-08-18T23:14:02.256Z,100826.47
2022-08-18T23:16:31.444Z,100828.97
2022-08-18T23:19:02.129Z,100825.94
2022-08-18T23:21:33.774Z,100826.63
2022-08-18T23:24:01.832Z,100825.41
2022-08-18T23:26:29.613Z,100822.38
2022-08-18T23:28:57.455Z,100829.31
2022-08-18T23:31:24.199Z,100827.78
2022-08-18T23:33:51.477Z,100826.94
2022-08-18T23:36:18.248Z,100829.78
2022-08-18T23:38:45.021Z,100829.44
2022-08-18T23:41:13.382Z,100835.19
2022-08-18T23:43:40.797Z,100832.66
2022-08-18T23:46:18.763Z,100827.34
2022-08-18T23:48:49.804Z,100831.56
2022-08-18T23:51:37.117Z,100833.22
2022-08-18T23:54:08.196Z,100836.91
2022-08-18T23:56:36.062Z,100825.44
2022-08-18T23:59:04.055Z,100825.94
